Time;durP1;ratioP1;P1;durP2;ratioP2;P2;SDS_P1;SDS_P2;PMS_P1;PMS_P2;Temp;Humidity;BMP_temperature;BMP_pressure;BME280_temperature;BME280_humidity;BME280_pressure;Samples;Min_cycle;Max_cycle;Signal;HPM_P1;HPM_P2
2022/04/01 00:00:55;;;;;;;;;;;6.70;61.40;;;;;;6304023;22;19907;-89
2022/04/01 00:03:21;;;;;;;;;;;6.70;61.40;;;;;;6303541;22;19942;-90
2022/04/01 00:05:46;;;;;;;;;;;6.70;61.50;;;;;;6304046;22;19952;-90
2022/04/01 00:08:12;;;;;;;;;;;6.70;61.40;;;;;;6279847;22;19942;-90
2022/04/01 00:10:38;;;;;;;;;;;6.70;61.40;;;;;;6278215;22;19919;-88
2022/04/01 00:13:03;;;;;;;;;;;6.70;61.40;;;;;;6277681;22;19911;-88
2022/04/01 00:15:29;;;;;;;;;;;6.70;61.40;;;;;;6278861;22;20334;-88
2022/04/01 00:17:56;;;;;;;;;;;6.70;61.50;;;;;;6303792;22;19926;-88
2022/04/01 00:20:21;;;;;;;;;;;6.70;61.50;;;;;;6302893;22;19907;-89
2022/04/01 00:22:47;;;;;;;;;;;6.70;61.50;;;;;;6278866;22;19915;-89
2022/04/01 00:25:13;;;;;;;;;;;6.70;61.70;;;;;;6279015;22;19991;-87
2022/04/01 00:27:38;;;;;;;;;;;6.60;61.70;;;;;;6302084;22;19961;-88
2022/04/01 00:30:04;;;;;;;;;;;6.60;61.70;;;;;;6302295;22;20228;-90
2022/04/01 00:32:30;;;;;;;;;;;6.60;61.70;;;;;;6278599;22;19911;-89
2022/04/01 00:34:55;;;;;;;;;;;6.70;61.70;;;;;;6302867;22;19930;-90
2022/04/01 00:37:21;;;;;;;;;;;6.60;61.80;;;;;;6278990;22;19953;-89
2022/04/01 00:39:46;;;;;;;;;;;6.60;61.70;;;;;;6277685;22;19927;-89
2022/04/01 00:42:12;;;;;;;;;;;6.70;61.70;;;;;;6305512;22;19907;-89
2022/04/01 00:44:38;;;;;;;;;;;6.60;61.80;;;;;;6281071;22;19911;-90
2022/04/01 00:47:05;;;;;;;;;;;6.60;61.70;;;;;;6280514;22;19986;-90
2022/04/01 00:49:31;;;;;;;;;;;6.70;61.70;;;;;;6304765;22;19923;-90
2022/04/01 00:52:00;;;;;;;;;;;6.70;61.70;;;;;;6305500;22;19988;-89
2022/04/01 00:54:27;;;;;;;;;;;6.60;61.70;;;;;;6280626;22;20240;-89
2022/04/01 00:56:54;;;;;;;;;;;6.60;61.70;;;;;;6304815;22;19911;-90
2022/04/01 00:59:20;;;;;;;;;;;6.70;61.70;;;;;;6304943;22;19907;-91
2022/04/01 01:01:47;;;;;;;;;;;6.70;61.70;;;;;;6280084;22;20306;-91
2022/04/01 01:04:13;;;;;;;;;;;6.70;61.70;;;;;;6306438;22;19914;-90
2022/04/01 01:06:41;;;;;;;;;;;6.70;61.70;;;;;;6305860;22;19908;-91
2022/04/01 01:09:06;;;;;;;;;;;6.60;61.70;;;;;;6305891;22;19914;-90
2022/04/01 01:11:32;;;;;;;;;;;6.70;61.70;;;;;;6306740;22;20280;-89
2022/04/01 01:13:59;;;;;;;;;;;6.60;61.70;;;;;;6306060;22;19957;-91
2022/04/01 01:16:25;;;;;;;;;;;6.60;61.80;;;;;;6306474;22;19907;-91
2022/04/01 01:19:00;;;;;;;;;;;6.70;61.80;;;;;;6282079;22;19978;-91
2022/04/01 01:21:26;;;;;;;;;;;6.60;61.80;;;;;;6281020;22;20037;-92
2022/04/01 01:23:55;;;;;;;;;;;6.60;61.80;;;;;;6293771;22;19922;-91
2022/04/01 01:26:22;;;;;;;;;;;6.60;61.80;;;;;;6305569;22;19911;-92
2022/04/01 01:28:48;;;;;;;;;;;6.60;61.80;;;;;;6306073;22;19907;-91
2022/04/01 01:31:14;;;;;;;;;;;6.60;61.80;;;;;;6282717;22;19919;-92
2022/04/01 01:33:40;;;;;;;;;;;6.70;61.70;;;;;;6253770;22;19914;-91
2022/04/01 01:36:05;;;;;;;;;;;6.60;61.70;;;;;;6280684;22;19957;-92
2022/04/01 01:38:32;;;;;;;;;;;6.60;61.70;;;;;;6279667;22;19911;-90
2022/04/01 01:40:58;;;;;;;;;;;6.70;61.70;;;;;;6304192;22;19915;-90
2022/04/01 01:43:24;;;;;;;;;;;6.70;61.70;;;;;;6305300;22;19911;-91
2022/04/01 01:45:49;;;;;;;;;;;6.70;61.60;;;;;;6305467;22;19915;-92
2022/04/01 01:48:17;;;;;;;;;;;6.70;61.70;;;;;;6305043;22;19918;-92
2022/04/01 01:56:10;;;;;;;;;;;6.60;61.80;;;;;;6280771;22;20226;-90
2022/04/01 01:58:40;;;;;;;;;;;6.60;61.90;;;;;;6305251;22;20001;-90
2022/04/01 02:01:06;;;;;;;;;;;6.60;61.80;;;;;;6279638;22;19914;-91
2022/04/01 02:03:31;;;;;;;;;;;6.60;61.80;;;;;;6305674;22;20367;-91
2022/04/01 02:05:58;;;;;;;;;;;6.60;61.80;;;;;;6304840;22;19912;-90
2022/04/01 02:08:24;;;;;;;;;;;6.60;61.80;;;;;;6305114;22;19914;-90
2022/04/01 02:10:49;;;;;;;;;;;6.60;61.90;;;;;;6280302;22;20224;-89
2022/04/01 02:13:15;;;;;;;;;;;6.60;61.70;;;;;;6304057;22;20220;-89
2022/04/01 02:15:40;;;;;;;;;;;6.60;61.70;;;;;;6279483;22;19907;-90
2022/04/01 02:18:06;;;;;;;;;;;6.60;61.70;;;;;;6305076;22;19919;-90
2022/04/01 02:20:33;;;;;;;;;;;6.60;61.70;;;;;;6305261;22;19914;-90
2022/04/01 02:22:58;;;;;;;;;;;6.60;61.80;;;;;;6305162;22;19922;-91
2022/04/01 02:25:24;;;;;;;;;;;6.60;61.70;;;;;;6305470;22;19903;-90
2022/04/01 02:27:49;;;;;;;;;;;6.60;61.70;;;;;;6279412;22;19911;-90
2022/04/01 02:30:15;;;;;;;;;;;6.60;61.80;;;;;;6281987;22;19903;-90
2022/04/01 02:32:43;;;;;;;;;;;6.60;61.70;;;;;;6278934;22;19955;-89
2022/04/01 02:35:09;;;;;;;;;;;6.60;61.70;;;;;;6303473;22;20224;-89
2022/04/01 02:37:34;;;;;;;;;;;6.60;61.60;;;;;;6303966;22;20343;-89
2022/04/01 02:40:01;;;;;;;;;;;6.60;61.50;;;;;;6304087;22;19911;-90
2022/04/01 02:42:26;;;;;;;;;;;6.60;61.60;;;;;;6303854;22;19978;-89
2022/04/01 02:44:52;;;;;;;;;;;6.60;61.50;;;;;;6279768;22;20347;-90
2022/04/01 02:47:18;;;;;;;;;;;6.60;61.50;;;;;;6279038;22;20343;-89
2022/04/01 02:49:43;;;;;;;;;;;6.60;61.40;;;;;;6280707;22;20283;-89
2022/04/01 02:52:09;;;;;;;;;;;6.60;61.40;;;;;;6280148;22;20216;-89
2022/04/01 02:54:34;;;;;;;;;;;6.60;61.40;;;;;;6279302;22;19907;-89
2022/04/01 02:57:00;;;;;;;;;;;6.60;61.40;;;;;;6303092;22;20232;-89
2022/04/01 02:59:26;;;;;;;;;;;6.60;61.40;;;;;;6303826;22;19914;-89
2022/04/01 03:01:52;;;;;;;;;;;6.60;61.40;;;;;;6291386;22;19912;-89
2022/04/01 03:04:17;;;;;;;;;;;6.60;61.30;;;;;;6303838;22;20217;-89
2022/04/01 03:06:43;;;;;;;;;;;6.60;61.20;;;;;;6304239;22;19961;-90
2022/04/01 03:09:09;;;;;;;;;;;6.70;61.30;;;;;;6281564;22;19933;-90
2022/04/01 03:11:37;;;;;;;;;;;6.70;61.20;;;;;;6304927;22;19911;-89
2022/04/01 03:14:03;;;;;;;;;;;6.70;61.30;;;;;;6304010;22;19907;-89
2022/04/01 03:16:28;;;;;;;;;;;6.70;61.20;;;;;;6277007;22;20393;-88
2022/04/01 03:18:57;;;;;;;;;;;6.70;61.20;;;;;;6279208;22;19915;-87
2022/04/01 03:21:24;;;;;;;;;;;6.60;61.10;;;;;;6279168;22;19919;-89
2022/04/01 03:23:50;;;;;;;;;;;6.60;61.20;;;;;;6303749;22;20320;-88
2022/04/01 03:26:15;;;;;;;;;;;6.70;61.20;;;;;;6278221;22;19911;-89
2022/04/01 03:28:41;;;;;;;;;;;6.60;61.20;;;;;;6278846;22;19945;-88
2022/04/01 03:31:06;;;;;;;;;;;6.70;61.20;;;;;;6278435;22;19911;-89
2022/04/01 03:33:36;;;;;;;;;;;6.70;61.10;;;;;;6277858;22;20320;-89
2022/04/01 03:36:01;;;;;;;;;;;6.70;61.10;;;;;;6303691;22;19908;-89
2022/04/01 03:38:27;;;;;;;;;;;6.70;61.00;;;;;;6282270;22;20005;-89
2022/04/01 03:40:52;;;;;;;;;;;6.70;61.10;;;;;;6278079;22;19942;-88
2022/04/01 03:43:20;;;;;;;;;;;6.70;61.10;;;;;;6279149;22;19934;-88
2022/04/01 03:45:48;;;;;;;;;;;6.70;61.20;;;;;;6303181;22;19916;-88
2022/04/01 03:48:23;;;;;;;;;;;6.60;61.20;;;;;;6302220;22;19915;-88
2022/04/01 03:50:50;;;;;;;;;;;6.60;61.10;;;;;;6277813;22;19926;-87
2022/04/01 03:53:16;;;;;;;;;;;6.60;61.10;;;;;;6302308;22;19911;-87
2022/04/01 03:55:44;;;;;;;;;;;6.70;61.10;;;;;;6302485;22;19915;-88
2022/04/01 03:58:13;;;;;;;;;;;6.60;61.10;;;;;;6277895;22;20344;-88
2022/04/01 04:00:40;;;;;;;;;;;6.70;61.10;;;;;;6301300;22;19907;-88
2022/04/01 04:03:07;;;;;;;;;;;6.70;61.10;;;;;;6302342;22;19911;-87
2022/04/01 04:05:38;;;;;;;;;;;6.60;61.00;;;;;;6302541;22;19983;-88
2022/04/01 04:08:04;;;;;;;;;;;6.60;61.00;;;;;;6302438;22;19911;-89
2022/04/01 04:10:30;;;;;;;;;;;6.60;61.00;;;;;;6302652;22;20334;-88
2022/04/01 04:12:57;;;;;;;;;;;6.70;61.00;;;;;;6277402;22;19911;-89
2022/04/01 04:15:26;;;;;;;;;;;6.70;60.90;;;;;;6278786;22;19908;-89
2022/04/01 04:17:54;;;;;;;;;;;6.60;61.00;;;;;;6302997;22;19969;-89
2022/04/01 04:20:26;;;;;;;;;;;6.70;61.00;;;;;;6302943;22;19907;-89
2022/04/01 04:22:57;;;;;;;;;;;6.60;60.90;;;;;;6278634;22;20305;-88
2022/04/01 04:25:25;;;;;;;;;;;6.70;60.90;;;;;;6277396;22;19908;-88
2022/04/01 04:27:55;;;;;;;;;;;6.70;60.90;;;;;;6280193;22;19990;-89
2022/04/01 04:30:24;;;;;;;;;;;6.70;60.90;;;;;;6279022;22;19978;-89
2022/04/01 04:32:50;;;;;;;;;;;6.60;60.90;;;;;;6280281;22;19992;-89
2022/04/01 04:35:16;;;;;;;;;;;6.60;60.80;;;;;;6280055;22;19907;-88
2022/04/01 04:37:45;;;;;;;;;;;6.60;60.80;;;;;;6304211;22;19923;-88
2022/04/01 04:40:12;;;;;;;;;;;6.60;60.80;;;;;;6279838;22;20363;-89
2022/04/01 04:42:41;;;;;;;;;;;6.60;60.80;;;;;;6304077;22;19935;-88
2022/04/01 04:45:07;;;;;;;;;;;6.60;60.80;;;;;;6304801;22;19946;-89
2022/04/01 04:47:33;;;;;;;;;;;6.60;60.80;;;;;;6304474;22;20335;-89
2022/04/01 04:50:01;;;;;;;;;;;6.60;60.80;;;;;;6303967;22;19915;-88
2022/04/01 04:52:30;;;;;;;;;;;6.60;60.90;;;;;;6276701;22;19986;-89
2022/04/01 04:54:55;;;;;;;;;;;6.60;60.90;;;;;;6276719;22;19989;-90
2022/04/01 04:57:21;;;;;;;;;;;6.60;60.90;;;;;;6277394;22;20321;-89
2022/04/01 04:59:48;;;;;;;;;;;6.60;60.80;;;;;;6277380;22;19912;-90
2022/04/01 05:02:23;;;;;;;;;;;6.60;60.90;;;;;;6276828;22;19937;-89
2022/04/01 05:04:54;;;;;;;;;;;6.60;61.00;;;;;;6278632;22;19908;-89
2022/04/01 05:07:29;;;;;;;;;;;6.60;60.90;;;;;;6278410;22;20248;-89
2022/04/01 05:10:08;;;;;;;;;;;6.60;61.00;;;;;;6277239;22;19923;-89
2022/04/01 05:12:53;;;;;;;;;;;6.60;61.00;;;;;;6276884;22;19917;-89
2022/04/01 05:15:19;;;;;;;;;;;6.60;60.90;;;;;;6277048;22;20366;-89
2022/04/01 05:18:01;;;;;;;;;;;6.50;61.00;;;;;;6276553;22;19920;-88
2022/04/01 05:20:28;;;;;;;;;;;6.60;61.00;;;;;;6275928;22;20001;-87
2022/04/01 05:23:13;;;;;;;;;;;6.60;61.00;;;;;;6276570;22;20367;-89
2022/04/01 05:26:00;;;;;;;;;;;6.60;60.90;;;;;;6276565;22;20292;-87
2022/04/01 05:28:30;;;;;;;;;;;6.60;61.00;;;;;;6275988;22;20316;-88
2022/04/01 05:31:04;;;;;;;;;;;6.60;60.90;;;;;;6276974;22;20373;-88
2022/04/01 05:33:37;;;;;;;;;;;6.60;60.90;;;;;;6303269;22;19911;-87
2022/04/01 05:36:04;;;;;;;;;;;6.60;61.00;;;;;;6279445;22;19986;-88
2022/04/01 05:38:32;;;;;;;;;;;6.60;61.00;;;;;;6303108;22;19923;-88
2022/04/01 05:40:58;;;;;;;;;;;6.60;61.10;;;;;;6303653;22;20370;-87
2022/04/01 05:43:24;;;;;;;;;;;6.70;61.10;;;;;;6277622;22;19911;-88
2022/04/01 05:45:53;;;;;;;;;;;6.70;61.10;;;;;;6303301;22;19930;-88
2022/04/01 05:48:20;;;;;;;;;;;6.70;61.00;;;;;;6303793;22;19930;-88
2022/04/01 05:50:47;;;;;;;;;;;6.70;61.00;;;;;;6279501;22;19986;-87
2022/04/01 05:53:12;;;;;;;;;;;6.70;61.00;;;;;;6279304;22;19911;-88
2022/04/01 05:55:38;;;;;;;;;;;6.70;61.10;;;;;;6303151;22;20347;-88
2022/04/01 05:58:05;;;;;;;;;;;6.80;61.10;;;;;;6278776;22;19919;-88
2022/04/01 06:00:36;;;;;;;;;;;6.80;61.00;;;;;;6303176;22;19907;-91
2022/04/01 06:03:34;;;;;;;;;;;6.80;61.00;;;;;;6305773;22;19920;-92
2022/04/01 06:06:20;;;;;;;;;;;6.80;61.00;;;;;;6212621;22;19957;-91
2022/04/01 06:08:51;;;;;;;;;;;6.80;61.10;;;;;;6305320;22;19934;-91
2022/04/01 06:11:17;;;;;;;;;;;6.80;61.10;;;;;;6278326;22;19911;-91
2022/04/01 06:13:51;;;;;;;;;;;6.80;61.20;;;;;;6279516;22;19934;-92
2022/04/01 06:16:29;;;;;;;;;;;6.80;61.20;;;;;;6280575;22;19903;-91
2022/04/01 06:19:10;;;;;;;;;;;6.80;61.20;;;;;;6278702;22;19926;-92
2022/04/01 06:21:37;;;;;;;;;;;6.80;61.30;;;;;;6280308;22;19982;-92
2022/04/01 06:24:06;;;;;;;;;;;6.80;61.30;;;;;;6280861;22;19911;-91
2022/04/01 06:26:34;;;;;;;;;;;6.90;61.20;;;;;;6278782;22;19903;-92
2022/04/01 06:29:19;;;;;;;;;;;6.80;61.20;;;;;;6305267;22;19998;-93
2022/04/01 06:31:47;;;;;;;;;;;6.90;61.20;;;;;;6305995;22;20224;-93
2022/04/01 06:34:36;;;;;;;;;;;6.90;61.30;;;;;;6306362;22;19911;-92
2022/04/01 06:37:04;;;;;;;;;;;6.80;61.30;;;;;;6224102;22;19914;-93
2022/04/01 06:39:40;;;;;;;;;;;6.90;61.30;;;;;;6307427;22;20211;-93
2022/04/01 06:42:05;;;;;;;;;;;6.80;61.40;;;;;;6307768;22;19938;-93
2022/04/01 06:44:32;;;;;;;;;;;6.80;61.50;;;;;;6307620;22;19903;-93
2022/04/01 06:46:57;;;;;;;;;;;6.80;61.50;;;;;;6306310;22;20237;-92
2022/04/01 06:49:23;;;;;;;;;;;6.90;61.40;;;;;;6305683;22;19891;-93
2022/04/01 06:51:48;;;;;;;;;;;6.90;61.40;;;;;;6305687;22;20320;-92
2022/04/01 06:54:14;;;;;;;;;;;6.90;61.40;;;;;;6306395;22;19918;-92
2022/04/01 06:56:40;;;;;;;;;;;6.90;61.40;;;;;;6305536;22;20232;-93
2022/04/01 06:59:05;;;;;;;;;;;6.90;61.30;;;;;;6306141;22;19931;-92
2022/04/01 07:01:31;;;;;;;;;;;6.90;61.30;;;;;;6306419;22;19984;-93
2022/04/01 07:03:57;;;;;;;;;;;7.00;61.40;;;;;;6305613;22;19912;-91
2022/04/01 07:06:22;;;;;;;;;;;7.00;61.40;;;;;;6305693;22;19922;-92
2022/04/01 07:09:04;;;;;;;;;;;7.00;61.30;;;;;;6280494;22;20274;-92
2022/04/01 07:11:34;;;;;;;;;;;7.00;61.50;;;;;;6304984;22;19903;-90
2022/04/01 07:14:00;;;;;;;;;;;7.00;61.50;;;;;;6280466;22;19922;-92
2022/04/01 07:16:25;;;;;;;;;;;7.00;61.40;;;;;;6305498;22;19903;-92
2022/04/01 07:18:51;;;;;;;;;;;7.00;61.40;;;;;;6279495;22;20240;-91
2022/04/01 07:21:17;;;;;;;;;;;7.00;61.40;;;;;;6279060;22;19908;-91
2022/04/01 07:23:44;;;;;;;;;;;7.10;61.30;;;;;;6305370;22;19915;-91
2022/04/01 07:26:09;;;;;;;;;;;7.00;61.20;;;;;;6304459;22;19961;-93
2022/04/01 07:28:35;;;;;;;;;;;7.10;61.20;;;;;;6305917;22;19911;-91
2022/04/01 07:32:29;;;;;;;;;;;7.10;61.10;;;;;;6305239;22;20337;-92
2022/04/01 07:33:49;;;;;;;;;;;7.10;61.10;;;;;;6281683;22;20246;-93
2022/04/01 07:36:15;;;;;;;;;;;7.10;61.00;;;;;;6305657;22;19957;-91
2022/04/01 07:38:40;;;;;;;;;;;7.10;61.10;;;;;;6305205;22;19919;-92
2022/04/01 07:41:15;;;;;;;;;;;7.20;60.90;;;;;;6304904;22;19907;-91
2022/04/01 07:43:40;;;;;;;;;;;7.20;60.70;;;;;;6305600;22;19891;-91
2022/04/01 07:46:06;;;;;;;;;;;7.20;60.60;;;;;;6304897;22;19981;-92
2022/04/01 07:48:31;;;;;;;;;;;7.20;60.60;;;;;;6279981;22;19918;-91
2022/04/01 07:50:57;;;;;;;;;;;7.20;60.50;;;;;;6304862;22;19915;-91
2022/04/01 07:53:28;;;;;;;;;;;7.20;60.40;;;;;;6281048;22;19957;-92
2022/04/01 07:55:53;;;;;;;;;;;7.20;60.40;;;;;;6282078;22;19980;-92
2022/04/01 07:58:19;;;;;;;;;;;7.20;60.40;;;;;;6304688;22;19915;-92
2022/04/01 08:00:45;;;;;;;;;;;7.30;60.50;;;;;;6304899;22;19907;-92
2022/04/01 08:03:31;;;;;;;;;;;7.30;60.40;;;;;;6305145;22;19934;-92
2022/04/01 08:05:58;;;;;;;;;;;7.30;60.50;;;;;;6306098;22;19912;-91
2022/04/01 08:08:23;;;;;;;;;;;7.30;60.30;;;;;;6305271;22;19990;-91
2022/04/01 08:10:54;;;;;;;;;;;7.30;60.30;;;;;;6278084;22;19981;-91
2022/04/01 08:13:19;;;;;;;;;;;7.30;60.40;;;;;;6303462;22;19908;-92
2022/04/01 08:15:52;;;;;;;;;;;7.30;60.20;;;;;;6278618;22;19918;-92
2022/04/01 08:18:20;;;;;;;;;;;7.30;60.30;;;;;;6303217;22;20306;-90
2022/04/01 08:20:46;;;;;;;;;;;7.40;60.40;;;;;;6303540;22;20282;-92
2022/04/01 08:23:12;;;;;;;;;;;7.30;60.30;;;;;;6279886;22;19914;-92
2022/04/01 08:25:38;;;;;;;;;;;7.40;60.30;;;;;;6303483;22;19959;-92
2022/04/01 08:28:03;;;;;;;;;;;7.40;60.20;;;;;;6303701;22;19938;-91
2022/04/01 08:30:29;;;;;;;;;;;7.40;60.20;;;;;;6303463;22;20328;-92
2022/04/01 08:32:56;;;;;;;;;;;7.40;60.20;;;;;;6303764;22;19911;-96
2022/04/01 08:35:21;;;;;;;;;;;7.40;60.30;;;;;;6304567;22;19911;-92
2022/04/01 08:37:47;;;;;;;;;;;7.40;60.30;;;;;;6304602;22;19919;-91
2022/04/01 08:40:12;;;;;;;;;;;7.40;60.50;;;;;;6279723;22;20240;-92
2022/04/01 08:42:44;;;;;;;;;;;7.50;60.20;;;;;;6279899;22;20308;-93
2022/04/01 08:45:10;;;;;;;;;;;7.40;60.10;;;;;;6304042;22;19918;-91
2022/04/01 08:47:36;;;;;;;;;;;7.40;59.90;;;;;;6303547;22;19907;-94
2022/04/01 08:50:02;;;;;;;;;;;7.50;60.00;;;;;;6277929;22;19915;-92
2022/04/01 08:52:28;;;;;;;;;;;7.50;59.90;;;;;;6303929;22;19925;-92
2022/04/01 08:54:53;;;;;;;;;;;7.50;59.70;;;;;;6304131;22;19911;-92
2022/04/01 08:57:19;;;;;;;;;;;7.60;59.80;;;;;;6302947;22;19907;-90
2022/04/01 08:59:44;;;;;;;;;;;7.70;59.70;;;;;;6280435;22;19907;-92
2022/04/01 09:02:10;;;;;;;;;;;7.70;59.70;;;;;;6277483;22;19961;-91
2022/04/01 09:04:39;;;;;;;;;;;7.80;59.60;;;;;;6279466;22;20001;-91
2022/04/01 09:07:14;;;;;;;;;;;7.80;59.40;;;;;;6303446;22;19986;-90
2022/04/01 09:09:40;;;;;;;;;;;7.80;59.50;;;;;;6304652;22;19914;-90
2022/04/01 09:12:11;;;;;;;;;;;7.90;59.70;;;;;;6304946;22;19911;-91
2022/04/01 09:14:37;;;;;;;;;;;8.00;59.80;;;;;;6306032;22;19961;-91
2022/04/01 09:17:03;;;;;;;;;;;8.00;59.70;;;;;;6281877;22;19911;-92
2022/04/01 09:19:33;;;;;;;;;;;8.10;59.80;;;;;;6305878;22;19990;-91
2022/04/01 09:22:17;;;;;;;;;;;8.20;59.80;;;;;;6305485;22;20398;-92
2022/04/01 09:25:02;;;;;;;;;;;8.20;59.90;;;;;;6281220;22;19914;-91
2022/04/01 09:27:38;;;;;;;;;;;8.20;59.60;;;;;;6279395;22;19962;-90
2022/04/01 09:30:04;;;;;;;;;;;8.20;59.70;;;;;;6281214;22;20216;-92
2022/04/01 09:32:37;;;;;;;;;;;8.20;59.30;;;;;;6305972;22;19895;-90
2022/04/01 09:35:03;;;;;;;;;;;8.20;59.20;;;;;;6279197;22;19961;-90
2022/04/01 09:37:39;;;;;;;;;;;8.20;59.00;;;;;;6278368;22;19923;-90
2022/04/01 09:40:06;;;;;;;;;;;8.20;58.90;;;;;;6280390;22;19957;-91
2022/04/01 09:42:31;;;;;;;;;;;8.20;58.80;;;;;;6277910;22;20002;-90
2022/04/01 09:44:57;;;;;;;;;;;8.20;58.90;;;;;;6303982;22;19908;-91
2022/04/01 09:47:23;;;;;;;;;;;8.20;58.70;;;;;;6303212;22;19937;-89
2022/04/01 09:49:52;;;;;;;;;;;8.10;58.80;;;;;;6279604;22;19960;-90
2022/04/01 09:52:22;;;;;;;;;;;8.20;59.00;;;;;;6302788;22;19915;-89
2022/04/01 09:54:52;;;;;;;;;;;8.30;59.30;;;;;;6278802;22;19955;-90
2022/04/01 09:57:19;;;;;;;;;;;8.30;58.80;;;;;;6280208;22;19911;-90
2022/04/01 09:59:45;;;;;;;;;;;8.30;58.50;;;;;;6279965;22;20252;-90
2022/04/01 10:02:11;;;;;;;;;;;8.20;58.70;;;;;;6304374;22;19982;-90
2022/04/01 10:04:36;;;;;;;;;;;8.30;58.90;;;;;;6281596;22;19946;-91
2022/04/01 10:07:03;;;;;;;;;;;8.40;58.90;;;;;;6304556;22;20414;-91
2022/04/01 10:09:29;;;;;;;;;;;8.40;58.80;;;;;;6304247;22;19943;-90
2022/04/01 10:12:02;;;;;;;;;;;8.40;59.00;;;;;;6280609;22;19911;-88
2022/04/01 10:14:29;;;;;;;;;;;8.50;59.00;;;;;;6304905;22;19911;-89
2022/04/01 10:16:56;;;;;;;;;;;8.50;58.40;;;;;;6304495;22;19911;-91
2022/04/01 10:19:23;;;;;;;;;;;8.50;58.40;;;;;;6303713;22;19988;-90
2022/04/01 10:21:48;;;;;;;;;;;8.40;58.20;;;;;;6278220;22;20236;-90
2022/04/01 10:24:13;;;;;;;;;;;8.50;58.60;;;;;;6277684;22;19907;-89
2022/04/01 10:26:42;;;;;;;;;;;8.50;58.70;;;;;;6278144;22;19919;-89
2022/04/01 10:29:08;;;;;;;;;;;8.60;58.20;;;;;;6304161;22;19918;-90
2022/04/01 10:31:57;;;;;;;;;;;8.70;58.30;;;;;;6305465;22;20217;-89
2022/04/01 10:34:24;;;;;;;;;;;8.70;58.10;;;;;;6278631;22;19911;-89
2022/04/01 10:36:55;;;;;;;;;;;8.70;57.60;;;;;;6303717;22;19914;-88
2022/04/01 10:39:21;;;;;;;;;;;8.70;57.70;;;;;;6277889;22;20304;-89
2022/04/01 10:42:24;;;;;;;;;;;8.70;57.90;;;;;;6278548;22;19918;-90
2022/04/01 10:44:51;;;;;;;;;;;8.70;57.70;;;;;;6278892;22;19911;-89
2022/04/01 10:47:17;;;;;;;;;;;8.80;57.20;;;;;;6279581;22;20208;-88
2022/04/01 10:52:29;;;;;;;;;;;8.80;56.90;;;;;;6278085;22;19998;-87
2022/04/01 10:55:06;;;;;;;;;;;8.80;57.20;;;;;;6278059;22;20236;-87
2022/04/01 10:57:38;;;;;;;;;;;8.90;56.80;;;;;;6276454;22;20332;-88
2022/04/01 11:00:07;;;;;;;;;;;9.00;57.60;;;;;;6302839;22;19904;-87
2022/04/01 11:02:33;;;;;;;;;;;9.10;56.10;;;;;;6302070;22;19978;-88
2022/04/01 11:05:19;;;;;;;;;;;9.10;55.30;;;;;;6278427;22;19915;-87
2022/04/01 11:07:44;;;;;;;;;;;9.10;55.00;;;;;;6276843;22;19907;-88
2022/04/01 11:10:23;;;;;;;;;;;9.10;54.60;;;;;;6278828;22;19986;-87
2022/04/01 11:12:52;;;;;;;;;;;9.20;55.50;;;;;;6278492;22;19914;-87
2022/04/01 11:15:27;;;;;;;;;;;9.20;54.30;;;;;;6278435;22;19915;-89
2022/04/01 11:17:56;;;;;;;;;;;9.20;53.20;;;;;;6302174;22;19915;-88
2022/04/01 11:20:21;;;;;;;;;;;9.10;52.80;;;;;;6276933;22;20755;-88
2022/04/01 11:22:53;;;;;;;;;;;9.10;52.90;;;;;;6276403;22;19943;-89
2022/04/01 11:25:21;;;;;;;;;;;9.10;52.10;;;;;;6276750;22;19911;-87
2022/04/01 11:28:02;;;;;;;;;;;9.10;52.40;;;;;;6278300;22;19914;-86
2022/04/01 11:31:02;;;;;;;;;;;9.10;53.00;;;;;;6245042;23;19946;-88
2022/04/01 11:33:47;;;;;;;;;;;9.20;53.30;;;;;;6243558;23;21182;-88
2022/04/01 11:36:18;;;;;;;;;;;9.30;52.70;;;;;;6244670;23;19907;-88
2022/04/01 11:38:45;;;;;;;;;;;9.20;52.20;;;;;;6244124;23;19927;-88
2022/04/01 11:41:11;;;;;;;;;;;9.10;51.70;;;;;;6218870;23;19904;-87
2022/04/01 11:43:37;;;;;;;;;;;9.00;51.40;;;;;;6243297;23;19915;-88
2022/04/01 11:46:06;;;;;;;;;;;9.10;51.60;;;;;;6245299;23;19903;-87
2022/04/01 11:48:33;;;;;;;;;;;9.10;51.60;;;;;;6219827;23;20655;-88
2022/04/01 11:51:04;;;;;;;;;;;9.10;52.20;;;;;;6244729;23;20292;-88
2022/04/01 11:53:35;;;;;;;;;;;9.10;51.00;;;;;;6218555;23;19904;-87
2022/04/01 11:56:01;;;;;;;;;;;9.20;50.90;;;;;;6244695;23;20011;-87
2022/04/01 11:58:33;;;;;;;;;;;9.30;52.10;;;;;;6219131;23;20343;-87
2022/04/01 12:00:58;;;;;;;;;;;9.50;53.50;;;;;;6226415;22;19918;-88
2022/04/01 12:03:24;;;;;;;;;;;9.70;53.90;;;;;;6277160;22;19903;-88
2022/04/01 12:05:53;;;;;;;;;;;9.80;52.20;;;;;;6301097;22;19912;-87
2022/04/01 12:11:05;;;;;;;;;;;9.70;50.10;;;;;;6277250;22;19986;-87
2022/04/01 12:13:31;;;;;;;;;;;9.70;49.50;;;;;;6301554;22;19911;-86
2022/04/01 12:15:57;;;;;;;;;;;9.70;49.30;;;;;;6301604;22;19986;-87
2022/04/01 12:18:28;;;;;;;;;;;9.60;49.70;;;;;;6301182;22;19914;-86
2022/04/01 12:20:56;;;;;;;;;;;9.60;50.30;;;;;;6277868;22;19965;-88
2022/04/01 12:23:22;;;;;;;;;;;9.50;49.50;;;;;;6277073;22;20283;-89
2022/04/01 12:25:48;;;;;;;;;;;9.50;50.20;;;;;;6276529;22;19918;-88
2022/04/01 12:28:15;;;;;;;;;;;9.50;50.90;;;;;;6302095;22;19904;-88
2022/04/01 12:30:45;;;;;;;;;;;9.60;50.90;;;;;;6276617;22;19907;-87
2022/04/01 12:33:21;;;;;;;;;;;9.50;49.80;;;;;;6277805;22;19946;-89
2022/04/01 12:35:58;;;;;;;;;;;9.40;49.70;;;;;;6277412;22;19951;-88
2022/04/01 12:38:25;;;;;;;;;;;9.30;50.20;;;;;;6276043;22;19947;-85
2022/04/01 12:40:52;;;;;;;;;;;9.30;51.10;;;;;;6277013;22;19914;-88
2022/04/01 12:43:31;;;;;;;;;;;9.30;51.10;;;;;;6277227;22;19916;-88
2022/04/01 12:46:00;;;;;;;;;;;9.20;51.70;;;;;;6278224;22;19908;-88
2022/04/01 12:48:27;;;;;;;;;;;9.20;51.60;;;;;;6279133;22;19943;-87
2022/04/01 12:50:55;;;;;;;;;;;9.10;51.30;;;;;;6279360;22;20025;-86
2022/04/01 12:53:20;;;;;;;;;;;9.00;52.00;;;;;;6279859;22;19942;-86
2022/04/01 12:55:46;;;;;;;;;;;9.00;52.60;;;;;;6303167;22;19911;-87
2022/04/01 12:58:14;;;;;;;;;;;8.90;52.40;;;;;;6277269;22;19912;-87
2022/04/01 13:00:40;;;;;;;;;;;8.80;52.60;;;;;;6280171;22;20275;-86
2022/04/01 13:03:08;;;;;;;;;;;8.80;52.70;;;;;;6304131;22;19907;-87
2022/04/01 13:05:34;;;;;;;;;;;8.80;53.30;;;;;;6279631;22;19914;-85
2022/04/01 13:08:00;;;;;;;;;;;8.80;53.20;;;;;;6279775;22;19903;-87
2022/04/01 13:10:27;;;;;;;;;;;8.70;53.40;;;;;;6279205;22;20006;-86
2022/04/01 13:12:53;;;;;;;;;;;8.70;53.40;;;;;;6265915;22;19911;-87
2022/04/01 13:15:27;;;;;;;;;;;8.60;54.00;;;;;;6279239;22;20307;-85
2022/04/01 13:17:54;;;;;;;;;;;8.70;54.20;;;;;;6303269;22;20578;-85
2022/04/01 13:20:20;;;;;;;;;;;8.60;54.40;;;;;;6302219;22;19912;-86
2022/04/01 13:22:46;;;;;;;;;;;8.70;54.40;;;;;;6279292;22;19913;-86
2022/04/01 13:25:12;;;;;;;;;;;8.60;54.00;;;;;;6303511;22;20268;-86
2022/04/01 13:27:38;;;;;;;;;;;8.50;54.50;;;;;;6303145;22;20011;-87
2022/04/01 13:30:04;;;;;;;;;;;8.40;55.00;;;;;;6279059;22;20010;-86
2022/04/01 13:32:30;;;;;;;;;;;8.40;55.60;;;;;;6279186;22;20338;-86
2022/04/01 13:34:56;;;;;;;;;;;8.40;56.00;;;;;;6302563;22;19912;-85
2022/04/01 13:37:21;;;;;;;;;;;8.40;56.20;;;;;;6277972;22;19920;-86
2022/04/01 13:39:47;;;;;;;;;;;8.40;56.30;;;;;;6278804;22;19969;-86
2022/04/01 13:42:12;;;;;;;;;;;8.40;56.10;;;;;;6302784;22;19952;-86
2022/04/01 13:44:38;;;;;;;;;;;8.30;56.40;;;;;;6303004;22;20308;-87
2022/04/01 13:47:04;;;;;;;;;;;8.30;56.50;;;;;;6278986;22;19998;-87
2022/04/01 13:49:30;;;;;;;;;;;8.30;56.90;;;;;;6278441;22;19911;-86
2022/04/01 13:51:55;;;;;;;;;;;8.30;57.10;;;;;;6278887;22;19914;-87
2022/04/01 13:54:21;;;;;;;;;;;8.30;57.20;;;;;;6303087;22;20307;-86
2022/04/01 13:56:46;;;;;;;;;;;8.30;57.30;;;;;;6302542;22;19938;-87
2022/04/01 13:59:12;;;;;;;;;;;8.30;57.50;;;;;;6278257;22;20385;-88
2022/04/01 14:01:37;;;;;;;;;;;8.30;57.40;;;;;;6279253;22;19907;-87
2022/04/01 14:04:04;;;;;;;;;;;8.30;57.30;;;;;;6277932;22;19914;-86
2022/04/01 14:06:30;;;;;;;;;;;8.20;57.50;;;;;;6278702;22;20291;-86
2022/04/01 14:08:59;;;;;;;;;;;8.20;57.60;;;;;;6278904;22;19907;-87
2022/04/01 14:11:26;;;;;;;;;;;8.20;57.40;;;;;;6278876;22;20544;-87
2022/04/01 14:13:51;;;;;;;;;;;8.20;57.70;;;;;;6277044;22;19911;-87
2022/04/01 14:16:18;;;;;;;;;;;8.10;57.90;;;;;;6276406;22;19907;-86
2022/04/01 14:18:43;;;;;;;;;;;8.10;58.20;;;;;;6302745;22;19919;-87
2022/04/01 14:21:09;;;;;;;;;;;8.20;58.30;;;;;;6303075;22;20205;-86
2022/04/01 14:23:36;;;;;;;;;;;8.10;58.20;;;;;;6280383;22;19908;-88
2022/04/01 14:26:04;;;;;;;;;;;8.10;58.30;;;;;;6278083;22;19914;-88
2022/04/01 14:28:34;;;;;;;;;;;8.10;58.40;;;;;;6279480;22;20288;-88
2022/04/01 14:31:00;;;;;;;;;;;8.00;58.40;;;;;;6304007;22;20285;-87
2022/04/01 14:33:25;;;;;;;;;;;7.90;58.50;;;;;;6278711;22;19904;-87
2022/04/01 14:35:51;;;;;;;;;;;7.90;58.80;;;;;;6304278;22;19911;-88
2022/04/01 14:38:17;;;;;;;;;;;8.00;59.00;;;;;;6278718;22;20367;-86
2022/04/01 14:40:43;;;;;;;;;;;7.90;58.70;;;;;;6304462;22;20317;-88
2022/04/01 14:43:08;;;;;;;;;;;7.90;58.90;;;;;;6280193;22;19911;-86
2022/04/01 14:45:36;;;;;;;;;;;7.90;58.90;;;;;;6303849;22;19910;-87
2022/04/01 14:48:04;;;;;;;;;;;7.90;58.90;;;;;;6278712;22;20231;-87